Terminal Aerodrome Forecast
Issued by NWS Lake Charles, LA

Home | Current Version | Previous Version | Text Only | Print | Product List | Glossary On
Versions: 1 2 3 4 5 6 7 8 9 10 11 12
000
FTUS44 KLCH 050520
TAFLCH
TAF
KLCH 050520Z 0506/0606 12009KT P6SM VCSH FEW025 SCT045
     FM050900 11006KT P6SM VCSH BKN025
     FM051500 13013G22KT P6SM VCSH BKN035
     FM052300 13006KT P6SM SCT250=

USA.gov is the U.S. government's official web portal to all federal, state and local government web resources and services.